Time;durP1;ratioP1;P1;durP2;ratioP2;P2;SDS_P1;SDS_P2;PMS_P1;PMS_P2;Temp;Humidity;BMP_temperature;BMP_pressure;BME280_temperature;BME280_humidity;BME280_pressure;Samples;Min_cycle;Max_cycle;Signal;HPM_P1;HPM_P2
2023/06/10 00:02:26;;;;;;;17.15;5.97;;;;;;;19.28;80.33;100912.75;7360100;19;20106;-64
2023/06/10 00:04:53;;;;;;;17.02;6.50;;;;;;;19.28;80.08;100915.44;7363477;19;20014;-62
2023/06/10 00:07:21;;;;;;;20.08;7.00;;;;;;;19.29;79.51;100912.56;7361494;19;20102;-62
2023/06/10 00:09:48;;;;;;;15.02;5.50;;;;;;;19.29;79.04;100914.41;7360614;19;20037;-63
2023/06/10 00:12:16;;;;;;;20.55;6.80;;;;;;;19.27;79.17;100911.13;7361116;19;20158;-63
2023/06/10 00:14:44;;;;;;;16.15;6.22;;;;;;;19.21;80.18;100916.25;7362730;19;20006;-63
2023/06/10 00:17:11;;;;;;;15.70;6.22;;;;;;;19.16;80.18;100901.88;7359689;19;20028;-63
2023/06/10 00:19:41;;;;;;;15.43;6.03;;;;;;;19.14;79.74;100907.47;7360570;19;20370;-61
2023/06/10 00:22:10;;;;;;;24.48;6.85;;;;;;;19.12;79.87;100906.81;7362588;19;20655;-62
2023/06/10 00:24:41;;;;;;;17.42;5.88;;;;;;;19.15;79.31;100909.06;7360480;19;20042;-63
2023/06/10 00:27:11;;;;;;;16.88;5.75;;;;;;;19.12;79.56;100901.50;7362876;19;20018;-63
2023/06/10 00:29:41;;;;;;;17.30;5.93;;;;;;;19.10;79.48;100908.03;7360155;19;20014;-63
2023/06/10 00:32:08;;;;;;;20.88;6.35;;;;;;;19.03;79.66;100902.75;7358343;19;20015;-64
2023/06/10 00:34:35;;;;;;;20.52;6.35;;;;;;;18.99;79.77;100890.84;7359488;19;20015;-63
2023/06/10 00:37:03;;;;;;;21.25;6.63;;;;;;;18.96;79.54;100887.75;7358757;19;20169;-63
2023/06/10 00:39:30;;;;;;;17.50;5.93;;;;;;;18.94;79.93;100889.81;7359435;19;20047;-62
2023/06/10 00:41:57;;;;;;;14.93;6.20;;;;;;;18.92;79.75;100887.34;7356228;19;20014;-62
2023/06/10 00:44:24;;;;;;;16.83;6.07;;;;;;;18.94;80.27;100881.81;7357720;19;20011;-63
2023/06/10 00:46:55;;;;;;;15.73;6.07;;;;;;;18.92;79.84;100882.00;7356898;19;20016;-63
2023/06/10 00:49:22;;;;;;;16.23;5.38;;;;;;;18.90;79.65;100885.91;7356795;19;20512;-62
2023/06/10 00:51:50;;;;;;;16.58;6.07;;;;;;;18.81;79.55;100879.97;7359062;19;20010;-63
2023/06/10 00:54:18;;;;;;;20.35;6.22;;;;;;;18.76;79.65;100885.91;7358030;19;20653;-62
2023/06/10 00:56:47;;;;;;;23.83;5.97;;;;;;;18.71;79.70;100884.88;7359321;19;20057;-62
2023/06/10 00:59:14;;;;;;;19.30;6.18;;;;;;;18.62;80.19;100883.44;7358424;19;20030;-63
2023/06/10 01:01:43;;;;;;;22.45;5.93;;;;;;;18.54;79.96;100881.00;7355834;19;20480;-63
2023/06/10 01:04:12;;;;;;;13.75;5.47;;;;;;;18.50;80.64;100879.69;7359800;19;20010;-63
2023/06/10 01:06:47;;;;;;;15.50;5.35;;;;;;;18.48;80.23;100879.94;7359954;19;20019;-62
2023/06/10 01:09:24;;;;;;;17.88;5.85;;;;;;;18.47;80.30;100872.94;7356424;19;20024;-62
2023/06/10 01:12:01;;;;;;;17.95;5.47;;;;;;;18.46;81.31;100881.97;7358594;19;20057;-62
2023/06/10 01:14:31;;;;;;;14.75;4.72;;;;;;;18.44;80.38;100869.88;7358357;19;20534;-61
2023/06/10 01:17:00;;;;;;;20.05;5.60;;;;;;;18.41;80.68;100868.41;7356992;19;20037;-62
2023/06/10 01:19:28;;;;;;;22.50;5.50;;;;;;;18.35;80.70;100874.56;7357611;19;20046;-63
2023/06/10 01:21:55;;;;;;;18.67;5.10;;;;;;;18.31;80.88;100866.16;7358213;19;20383;-62
2023/06/10 01:24:22;;;;;;;15.82;5.15;;;;;;;18.27;81.75;100864.94;7359595;19;20011;-63
2023/06/10 01:26:51;;;;;;;21.30;5.85;;;;;;;18.18;81.17;100867.97;7365004;19;20014;-63
2023/06/10 01:29:21;;;;;;;15.32;5.78;;;;;;;18.15;81.19;100874.50;7364085;19;21363;-63
2023/06/10 01:31:53;;;;;;;21.73;5.95;;;;;;;18.12;81.32;100871.44;7362946;19;20033;-62
2023/06/10 01:34:23;;;;;;;16.65;5.38;;;;;;;18.08;81.11;100873.66;7365157;19;20015;-62
2023/06/10 01:36:51;;;;;;;27.17;6.15;;;;;;;18.02;81.50;100876.34;7365179;19;20023;-63
2023/06/10 01:39:22;;;;;;;16.48;5.38;;;;;;;18.01;81.75;100877.34;7364065;19;21793;-62
2023/06/10 01:41:51;;;;;;;15.10;5.35;;;;;;;17.91;81.66;100864.41;7363963;19;20015;-62
2023/06/10 01:44:20;;;;;;;16.80;5.90;;;;;;;17.88;81.92;100865.63;7359743;19;20019;-63
2023/06/10 01:46:47;;;;;;;17.77;5.63;;;;;;;17.87;81.94;100861.34;7364695;19;20051;-63
2023/06/10 01:49:14;;;;;;;20.77;5.28;;;;;;;17.88;82.35;100859.47;7363357;19;20018;-62
2023/06/10 01:51:41;;;;;;;24.10;5.88;;;;;;;17.85;81.85;100855.38;7363787;19;20783;-63
2023/06/10 01:54:08;;;;;;;17.40;5.38;;;;;;;17.81;81.77;100855.97;7365349;19;20063;-62
2023/06/10 01:56:35;;;;;;;17.73;6.25;;;;;;;17.74;82.01;100852.47;7365877;19;20864;-62
2023/06/10 01:59:02;;;;;;;15.63;5.32;;;;;;;17.73;81.54;100856.97;7365197;19;21267;-63
2023/06/10 02:01:30;;;;;;;15.88;5.22;;;;;;;17.67;81.60;100862.28;7361348;19;20089;-62
2023/06/10 02:03:57;;;;;;;19.95;6.03;;;;;;;17.65;82.13;100859.81;7364197;19;20640;-63
2023/06/10 02:06:24;;;;;;;16.17;5.38;;;;;;;17.57;81.81;100864.44;7363857;19;20010;-62
2023/06/10 02:08:51;;;;;;;19.50;5.85;;;;;;;17.54;81.72;100861.16;7363047;19;20037;-62
2023/06/10 02:11:18;;;;;;;16.05;5.38;;;;;;;17.50;81.98;100861.75;7365167;19;20379;-63
2023/06/10 02:13:45;;;;;;;18.88;5.75;;;;;;;17.47;82.22;100864.81;7363680;19;20021;-62
2023/06/10 02:16:13;;;;;;;14.68;5.38;;;;;;;17.43;82.01;100864.38;7362967;19;20016;-62
2023/06/10 02:18:42;;;;;;;14.10;5.63;;;;;;;17.41;82.50;100861.09;7362520;19;20011;-62
2023/06/10 02:21:10;;;;;;;22.15;6.07;;;;;;;17.40;82.11;100861.28;7364308;19;20012;-62
2023/06/10 02:23:37;;;;;;;20.17;6.07;;;;;;;17.37;82.17;100865.13;7364023;19;20812;-62
2023/06/10 02:26:04;;;;;;;20.67;5.18;;;;;;;17.29;82.33;100859.16;7364698;19;20018;-63
2023/06/10 02:28:32;;;;;;;18.92;6.07;;;;;;;17.26;82.61;100860.41;7364163;19;21141;-64
2023/06/10 02:31:00;;;;;;;16.25;6.43;;;;;;;17.26;82.31;100862.22;7360037;19;20028;-62
2023/06/10 02:33:27;;;;;;;17.02;5.70;;;;;;;17.23;82.46;100857.28;7360466;19;20047;-62
2023/06/10 02:35:55;;;;;;;26.63;7.10;;;;;;;17.23;82.61;100867.91;7358078;19;20142;-62
2023/06/10 02:38:22;;;;;;;18.85;6.07;;;;;;;17.17;82.57;100860.75;7363821;19;20047;-61
2023/06/10 02:40:49;;;;;;;18.67;5.72;;;;;;;17.12;82.62;100860.50;7363950;19;20129;-62
2023/06/10 02:43:16;;;;;;;16.70;6.10;;;;;;;17.06;82.85;100865.59;7362030;19;20403;-61
2023/06/10 02:45:43;;;;;;;18.45;6.03;;;;;;;17.02;83.25;100876.78;7358018;19;20414;-66
2023/06/10 02:48:11;;;;;;;17.30;6.75;;;;;;;16.97;83.47;100868.56;7358739;19;20455;-63
2023/06/10 02:50:40;;;;;;;16.85;6.13;;;;;;;16.93;83.63;100876.09;7361992;19;20025;-63
2023/06/10 02:53:07;;;;;;;19.42;6.32;;;;;;;16.92;83.74;100878.94;7362049;19;20018;-62
2023/06/10 02:55:35;;;;;;;20.98;6.05;;;;;;;16.87;83.64;100873.38;7359335;19;20014;-63
2023/06/10 02:58:02;;;;;;;17.83;6.35;;;;;;;16.84;83.84;100866.63;7362314;19;20014;-65
2023/06/10 03:00:30;;;;;;;22.63;6.43;;;;;;;16.79;84.40;100869.06;7362256;19;20062;-63
2023/06/10 03:02:58;;;;;;;19.98;7.35;;;;;;;16.76;84.77;100869.41;7359107;19;21874;-61
2023/06/10 03:05:25;;;;;;;14.38;5.45;;;;;;;16.78;84.20;100864.75;7363115;19;20018;-62
2023/06/10 03:07:52;;;;;;;20.23;6.68;;;;;;;16.75;84.24;100859.00;7361924;19;20014;-62
2023/06/10 03:10:19;;;;;;;21.40;6.25;;;;;;;16.72;84.20;100860.19;7362599;19;20143;-62
2023/06/10 03:12:46;;;;;;;21.17;6.70;;;;;;;16.68;84.60;100857.09;7361756;19;20052;-62
2023/06/10 03:15:15;;;;;;;18.50;6.47;;;;;;;16.68;84.57;100854.44;7362449;19;20114;-62
2023/06/10 03:17:42;;;;;;;20.13;6.75;;;;;;;16.68;84.60;100857.09;7359856;19;20023;-62
2023/06/10 03:20:11;;;;;;;18.02;6.22;;;;;;;16.68;84.33;100856.28;7362303;19;21034;-63
2023/06/10 03:22:38;;;;;;;21.30;5.72;;;;;;;16.67;84.61;100854.63;7361749;19;20400;-63
2023/06/10 03:25:07;;;;;;;26.90;7.57;;;;;;;16.66;84.50;100845.84;7362047;19;20011;-62
2023/06/10 03:27:35;;;;;;;22.60;6.85;;;;;;;16.64;84.28;100847.88;7363029;19;20002;-62
2023/06/10 03:30:03;;;;;;;24.08;6.40;;;;;;;16.62;84.26;100857.03;7361199;19;20148;-61
2023/06/10 03:32:30;;;;;;;18.00;5.78;;;;;;;16.59;84.75;100847.63;7359036;19;20022;-63
2023/06/10 03:34:57;;;;;;;23.27;6.85;;;;;;;16.61;84.60;100858.03;7361963;19;20011;-63
2023/06/10 03:37:25;;;;;;;16.55;5.47;;;;;;;16.64;84.33;100853.19;7362007;19;20049;-62
2023/06/10 03:39:52;;;;;;;18.58;5.90;;;;;;;16.58;84.38;100853.94;7362253;19;20010;-62
2023/06/10 03:42:19;;;;;;;19.77;5.95;;;;;;;16.59;84.66;100852.94;7362783;19;20882;-62
2023/06/10 03:44:47;;;;;;;23.10;6.97;;;;;;;16.60;84.52;100859.09;7361189;19;20495;-63
2023/06/10 03:47:14;;;;;;;23.88;6.70;;;;;;;16.60;84.46;100854.59;7358374;19;20049;-62
2023/06/10 03:49:41;;;;;;;20.58;7.20;;;;;;;16.59;84.52;100860.91;7361864;19;20139;-63
2023/06/10 03:52:08;;;;;;;19.63;6.53;;;;;;;16.55;84.72;100858.81;7362549;19;20094;-62
2023/06/10 03:54:35;;;;;;;19.02;7.13;;;;;;;16.51;84.62;100861.00;7361597;19;20048;-63
2023/06/10 03:57:03;;;;;;;24.73;6.38;;;;;;;16.48;84.71;100853.44;7364816;19;20641;-63
2023/06/10 03:59:30;;;;;;;20.67;6.05;;;;;;;16.50;84.82;100847.94;7363854;19;20014;-63
2023/06/10 04:01:58;;;;;;;16.90;6.75;;;;;;;16.48;84.86;100850.75;7360072;19;20034;-62
2023/06/10 04:04:25;;;;;;;25.83;7.03;;;;;;;16.46;84.82;100858.09;7359166;19;20019;-63
2023/06/10 04:06:52;;;;;;;18.73;6.72;;;;;;;16.47;85.75;100856.25;7360791;19;20117;-62
2023/06/10 04:09:19;;;;;;;13.10;5.80;;;;;;;16.49;85.13;100859.56;7358947;19;20723;-63
2023/06/10 04:11:48;;;;;;;16.52;6.30;;;;;;;16.47;84.82;100859.75;7359518;19;20014;-63
2023/06/10 04:14:15;;;;;;;18.88;6.07;;;;;;;16.43;84.96;100853.16;7360389;19;20030;-63
2023/06/10 04:16:42;;;;;;;21.20;6.78;;;;;;;16.48;84.95;100858.72;7360372;19;20010;-62
2023/06/10 04:19:10;;;;;;;18.77;6.07;;;;;;;16.46;85.29;100855.44;7359542;19;20021;-63
2023/06/10 04:21:37;;;;;;;27.77;7.00;;;;;;;16.38;84.86;100855.56;7360846;19;20470;-62
2023/06/10 04:24:05;;;;;;;17.90;6.38;;;;;;;16.35;85.17;100855.13;7360220;19;20095;-63
2023/06/10 04:26:33;;;;;;;19.10;7.68;;;;;;;16.31;85.48;100857.34;7359988;19;20060;-62
2023/06/10 04:29:00;;;;;;;20.80;6.40;;;;;;;16.31;85.63;100853.84;7360620;19;20007;-62
2023/06/10 04:31:28;;;;;;;17.15;6.68;;;;;;;16.34;85.49;100859.63;7358272;19;20018;-62
2023/06/10 04:33:55;;;;;;;20.20;6.60;;;;;;;16.35;85.73;100853.31;7360131;19;20157;-63
2023/06/10 04:36:23;;;;;;;22.73;5.80;;;;;;;16.38;85.45;100854.75;7361086;19;20027;-63
2023/06/10 04:38:52;;;;;;;20.30;6.60;;;;;;;16.40;85.31;100858.88;7358461;19;20026;-64
2023/06/10 04:41:19;;;;;;;21.00;6.55;;;;;;;16.48;84.74;100856.09;7361579;19;20664;-62
2023/06/10 04:43:46;;;;;;;20.92;6.55;;;;;;;16.48;84.62;100853.44;7358703;19;20014;-65
2023/06/10 04:46:13;;;;;;;22.67;6.47;;;;;;;16.52;84.47;100867.13;7359331;19;20494;-62
2023/06/10 04:48:42;;;;;;;21.75;6.15;;;;;;;16.48;84.52;100863.22;7356668;19;20006;-62
2023/06/10 04:51:09;;;;;;;20.98;6.35;;;;;;;16.42;84.83;100867.47;7357002;19;20018;-62
2023/06/10 04:53:37;;;;;;;20.92;6.20;;;;;;;16.43;84.86;100862.97;7358940;19;20024;-62
2023/06/10 04:56:04;;;;;;;19.73;6.10;;;;;;;16.46;84.82;100862.56;7360011;19;20109;-62
2023/06/10 04:58:32;;;;;;;18.02;6.05;;;;;;;16.45;84.66;100864.44;7358340;19;20010;-63
2023/06/10 05:00:59;;;;;;;21.00;6.82;;;;;;;16.41;84.90;100863.16;7357341;19;20102;-62
2023/06/10 05:03:26;;;;;;;19.77;6.70;;;;;;;16.45;84.77;100856.47;7355744;19;20015;-61
2023/06/10 05:05:54;;;;;;;18.45;6.55;;;;;;;16.44;84.85;100854.00;7360141;19;20025;-65
2023/06/10 05:08:21;;;;;;;16.33;6.05;;;;;;;16.45;84.87;100864.44;7357778;19;20030;-62
2023/06/10 05:10:49;;;;;;;22.35;6.68;;;;;;;16.45;84.91;100855.66;7357672;19;20037;-62
2023/06/10 05:13:17;;;;;;;21.15;6.68;;;;;;;16.43;84.71;100857.66;7357979;19;20011;-62
2023/06/10 05:15:45;;;;;;;23.63;6.28;;;;;;;16.47;85.01;100858.91;7358588;19;20019;-62
2023/06/10 05:18:13;;;;;;;16.70;6.32;;;;;;;16.46;84.91;100850.13;7357221;19;20834;-62
2023/06/10 05:20:40;;;;;;;17.67;5.82;;;;;;;16.49;84.91;100852.41;7358933;19;21120;-62
2023/06/10 05:23:08;;;;;;;19.60;6.88;;;;;;;16.46;84.70;100844.81;7356707;19;20014;-63
2023/06/10 05:25:35;;;;;;;21.77;7.22;;;;;;;16.49;84.79;100849.75;7358518;19;20010;-62
2023/06/10 05:28:03;;;;;;;22.73;7.55;;;;;;;16.50;84.66;100842.63;7358574;19;20576;-63
2023/06/10 05:30:30;;;;;;;22.33;7.00;;;;;;;16.52;84.94;100846.72;7356647;19;20518;-62
2023/06/10 05:32:58;;;;;;;14.43;6.32;;;;;;;16.55;84.51;100850.84;7354845;19;20011;-62
2023/06/10 05:35:25;;;;;;;20.38;6.80;;;;;;;16.56;84.83;100849.78;7357881;19;20010;-63
2023/06/10 05:37:52;;;;;;;21.35;7.63;;;;;;;16.60;84.75;100854.59;7357386;19;20021;-63
2023/06/10 05:40:20;;;;;;;21.88;7.05;;;;;;;16.68;84.56;100850.97;7359039;19;20045;-63
2023/06/10 05:42:47;;;;;;;16.85;7.18;;;;;;;16.71;84.30;100863.84;7356544;19;20022;-62
2023/06/10 05:45:15;;;;;;;17.85;7.15;;;;;;;16.77;84.41;100863.09;7358338;19;20028;-62
2023/06/10 05:47:42;;;;;;;26.70;8.00;;;;;;;16.87;84.17;100862.75;7353183;19;21771;-63
2023/06/10 05:50:10;;;;;;;21.08;6.68;;;;;;;17.00;82.98;100861.03;7357569;19;20007;-64
2023/06/10 05:52:40;;;;;;;16.45;6.55;;;;;;;17.04;83.19;100861.47;7357175;19;20526;-64
2023/06/10 05:55:07;;;;;;;23.27;6.60;;;;;;;17.05;83.16;100857.78;7358385;19;20041;-62
2023/06/10 05:57:35;;;;;;;17.83;5.70;;;;;;;17.12;82.88;100850.66;7359133;19;20085;-62
2023/06/10 06:00:04;;;;;;;18.17;7.53;;;;;;;17.25;82.69;100865.91;7356086;19;20130;-62
2023/06/10 06:02:31;;;;;;;21.02;6.85;;;;;;;17.38;81.84;100864.13;7353764;19;20022;-63
2023/06/10 06:04:58;;;;;;;21.38;7.72;;;;;;;17.57;80.69;100859.94;7357655;19;20856;-62
2023/06/10 06:07:26;;;;;;;19.60;8.10;;;;;;;17.62;80.52;100867.38;7356408;19;20007;-65
2023/06/10 06:09:54;;;;;;;17.48;7.10;;;;;;;17.72;80.32;100873.16;7358762;19;20019;-62
2023/06/10 06:12:21;;;;;;;18.00;6.85;;;;;;;17.85;79.87;100868.69;7362102;19;20015;-63
2023/06/10 06:14:49;;;;;;;17.98;7.53;;;;;;;17.98;79.16;100864.44;7365788;19;20014;-63
2023/06/10 06:17:16;;;;;;;15.00;7.07;;;;;;;17.99;79.04;100858.91;7360658;19;20699;-63
2023/06/10 06:19:45;;;;;;;22.45;7.97;;;;;;;17.98;79.23;100862.56;7365000;19;20014;-64
2023/06/10 06:22:12;;;;;;;20.70;6.93;;;;;;;17.93;79.73;100862.34;7364399;19;20025;-63
2023/06/10 06:24:39;;;;;;;19.92;7.20;;;;;;;17.98;79.92;100869.78;7362766;19;20022;-63
2023/06/10 06:27:06;;;;;;;21.30;7.63;;;;;;;18.10;79.40;100862.81;7363586;19;20554;-65
2023/06/10 06:29:34;;;;;;;14.23;6.43;;;;;;;18.27;78.61;100856.94;7365136;19;20026;-62
2023/06/10 06:32:01;;;;;;;18.80;7.38;;;;;;;18.49;77.96;100867.44;7358713;19;20015;-64
2023/06/10 06:34:29;;;;;;;20.70;6.35;;;;;;;18.68;77.48;100866.66;7364176;19;20013;-66
2023/06/10 06:36:56;;;;;;;18.88;6.75;;;;;;;18.75;77.08;100864.78;7363678;19;20022;-62
2023/06/10 06:39:23;;;;;;;21.48;7.28;;;;;;;18.87;76.18;100865.00;7364658;19;20014;-63
2023/06/10 06:41:51;;;;;;;20.55;6.35;;;;;;;18.90;76.51;100861.91;7364939;19;20014;-63
2023/06/10 06:44:18;;;;;;;24.20;8.27;;;;;;;19.02;75.89;100862.94;7365954;19;20051;-64
2023/06/10 06:46:45;;;;;;;19.33;6.65;;;;;;;19.13;75.15;100864.97;7361367;19;20738;-62
2023/06/10 06:49:13;;;;;;;17.65;6.25;;;;;;;19.13;75.14;100867.63;7363774;19;20055;-63
2023/06/10 06:51:40;;;;;;;18.55;7.00;;;;;;;19.08;75.34;100876.25;7361451;19;20039;-66
2023/06/10 06:54:07;;;;;;;16.92;6.90;;;;;;;19.06;75.54;100877.47;7363028;19;20050;-64
2023/06/10 06:56:35;;;;;;;13.25;6.15;;;;;;;19.03;75.65;100878.72;7362863;19;20019;-65
2023/06/10 06:59:02;;;;;;;17.67;7.28;;;;;;;19.01;76.42;100875.44;7363438;19;20018;-63
2023/06/10 07:01:29;;;;;;;17.00;6.70;;;;;;;19.00;76.74;100881.78;7359901;19;20018;-63
2023/06/10 07:03:57;;;;;;;21.58;7.50;;;;;;;19.00;76.75;100881.78;7361689;19;20019;-63
2023/06/10 07:06:25;;;;;;;19.38;7.25;;;;;;;19.01;76.53;100877.28;7362210;19;20581;-64
2023/06/10 07:08:52;;;;;;;21.02;7.63;;;;;;;19.03;76.55;100880.56;7361566;19;20019;-62
2023/06/10 07:11:20;;;;;;;20.98;7.85;;;;;;;19.15;75.86;100881.56;7360066;19;20467;-62
2023/06/10 07:13:47;;;;;;;19.75;7.45;;;;;;;19.22;75.50;100877.88;7361737;19;20019;-62
2023/06/10 07:16:15;;;;;;;17.05;7.15;;;;;;;19.29;75.40;100872.53;7360854;19;20007;-63
2023/06/10 07:18:42;;;;;;;17.05;7.40;;;;;;;19.28;75.51;100867.41;7361932;19;20009;-62
2023/06/10 07:21:09;;;;;;;13.48;6.80;;;;;;;19.32;75.80;100876.63;7362292;19;21683;-63
2023/06/10 07:23:37;;;;;;;14.20;7.13;;;;;;;19.36;75.98;100880.50;7361574;19;20018;-63
2023/06/10 07:26:04;;;;;;;17.42;6.90;;;;;;;19.43;76.08;100884.00;7361913;19;21041;-62
2023/06/10 07:28:32;;;;;;;20.75;8.05;;;;;;;19.59;75.60;100880.91;7360474;19;20094;-63
2023/06/10 07:30:59;;;;;;;18.55;7.55;;;;;;;19.77;75.62;100880.22;7359628;19;20659;-63
2023/06/10 07:33:27;;;;;;;17.30;7.50;;;;;;;19.94;74.93;100878.72;7359975;19;20951;-63
2023/06/10 07:35:54;;;;;;;20.65;7.65;;;;;;;20.19;73.94;100884.13;7362763;19;20018;-64
2023/06/10 07:38:21;;;;;;;18.95;8.10;;;;;;;20.65;71.87;100882.00;7360978;19;20018;-65
2023/06/10 07:40:49;;;;;;;17.50;6.82;;;;;;;21.63;69.45;100896.34;7360915;19;20081;-62
2023/06/10 07:43:16;;;;;;;16.67;6.97;;;;;;;23.28;62.73;100894.75;7361478;19;20489;-62
2023/06/10 07:45:44;;;;;;;18.02;6.20;;;;;;;24.86;56.87;100895.94;7359311;19;20015;-62
2023/06/10 07:48:11;;;;;;;14.10;6.10;;;;;;;25.48;54.65;100899.31;7357702;19;20340;-63
2023/06/10 07:50:40;;;;;;;16.98;6.85;;;;;;;25.45;54.06;100902.50;7360646;19;20459;-62
2023/06/10 07:53:07;;;;;;;22.63;7.00;;;;;;;25.32;54.31;100900.97;7359917;19;20021;-63
2023/06/10 07:55:34;;;;;;;16.02;7.43;;;;;;;25.10;54.54;100900.94;7361704;19;20011;-63
2023/06/10 07:58:02;;;;;;;16.30;6.82;;;;;;;24.73;56.27;100898.97;7360800;19;20022;-64
2023/06/10 08:00:29;;;;;;;16.17;6.90;;;;;;;24.43;57.00;100901.97;7358471;19;20496;-62
2023/06/10 08:02:56;;;;;;;18.70;6.70;;;;;;;24.16;58.55;100902.53;7358085;19;20013;-63
2023/06/10 08:05:24;;;;;;;17.63;6.78;;;;;;;24.23;57.47;100903.19;7361018;19;20014;-64
2023/06/10 08:07:51;;;;;;;20.02;7.53;;;;;;;24.05;58.88;100894.50;7358642;19;20025;-64
2023/06/10 08:10:19;;;;;;;21.40;8.13;;;;;;;23.73;59.57;100894.94;7354516;19;20040;-61
2023/06/10 08:12:46;;;;;;;16.42;8.05;;;;;;;23.50;60.54;100896.84;7358534;19;20042;-63
2023/06/10 08:15:13;;;;;;;16.70;7.60;;;;;;;23.33;61.66;100894.84;7359925;19;21575;-62
2023/06/10 08:17:45;;;;;;;15.15;6.88;;;;;;;23.26;61.39;100901.41;7358331;19;20922;-64
2023/06/10 08:20:13;;;;;;;14.02;6.45;;;;;;;23.34;61.74;100895.69;7360864;19;20017;-63
2023/06/10 08:22:41;;;;;;;17.92;6.97;;;;;;;23.22;62.50;100895.69;7359607;19;20019;-63
2023/06/10 08:25:09;;;;;;;18.52;6.93;;;;;;;23.22;63.41;100905.59;7357105;19;20499;-62
2023/06/10 08:27:37;;;;;;;14.60;6.75;;;;;;;23.37;63.23;100905.94;7360870;19;20010;-63
2023/06/10 08:30:05;;;;;;;13.10;7.25;;;;;;;23.63;62.08;100905.47;7359548;19;20094;-63
2023/06/10 08:32:32;;;;;;;15.98;6.47;;;;;;;23.90;61.61;100908.44;7355926;19;20019;-66
2023/06/10 08:34:59;;;;;;;18.70;8.00;;;;;;;24.37;58.66;100911.00;7359731;19;20018;-62
2023/06/10 08:37:27;;;;;;;20.35;8.00;;;;;;;24.52;58.54;100912.09;7360114;19;20397;-62
2023/06/10 08:39:54;;;;;;;18.45;6.70;;;;;;;24.62;57.97;100906.06;7357673;19;20094;-62
2023/06/10 08:42:33;;;;;;;13.50;6.55;;;;;;;24.76;57.13;100911.94;7358911;19;21024;-63
2023/06/10 08:45:02;;;;;;;16.42;7.53;;;;;;;24.94;58.02;100914.44;7360897;19;20098;-61
2023/06/10 08:47:31;;;;;;;15.18;7.22;;;;;;;24.77;57.34;100918.94;7357695;19;20059;-62
2023/06/10 08:50:03;;;;;;;18.80;8.40;;;;;;;24.56;58.20;100907.84;7358982;19;20019;-63
2023/06/10 08:52:37;;;;;;;21.63;7.95;;;;;;;24.48;58.12;100910.13;7356912;19;20037;-62
2023/06/10 08:55:13;;;;;;;19.33;7.88;;;;;;;24.45;58.50;100905.22;7362745;19;20015;-64
2023/06/10 08:57:44;;;;;;;14.75;7.15;;;;;;;24.44;59.15;100908.94;7360392;19;20557;-63
2023/06/10 09:00:13;;;;;;;12.88;6.43;;;;;;;24.53;59.83;100902.13;7362242;19;20098;-63
2023/06/10 09:02:41;;;;;;;17.90;7.50;;;;;;;24.57;58.94;100904.09;7359392;19;20018;-62
2023/06/10 09:05:10;;;;;;;12.68;6.90;;;;;;;24.51;59.13;100901.56;7360099;19;20094;-62
2023/06/10 09:07:39;;;;;;;16.33;7.38;;;;;;;24.55;58.85;100892.75;7359650;19;20018;-62
2023/06/10 09:10:07;;;;;;;14.60;6.95;;;;;;;24.62;58.78;100895.28;7363672;19;20023;-62
2023/06/10 09:12:36;;;;;;;13.90;8.25;;;;;;;24.63;58.19;100891.53;7360741;19;20018;-63
2023/06/10 09:15:05;;;;;;;12.02;7.60;;;;;;;24.44;58.47;100890.13;7362054;19;20029;-61
2023/06/10 09:17:32;;;;;;;13.73;7.40;;;;;;;24.29;59.83;100888.78;7357956;19;20029;-63
2023/06/10 09:20:02;;;;;;;19.58;8.77;;;;;;;24.24;60.03;100893.25;7360186;19;20011;-62
2023/06/10 09:22:33;;;;;;;16.58;7.50;;;;;;;24.15;60.85;100882.06;7357305;19;20023;-63
2023/06/10 09:25:05;;;;;;;16.90;7.97;;;;;;;24.17;60.78;100881.84;7362643;19;21297;-63
2023/06/10 09:27:32;;;;;;;14.95;7.70;;;;;;;24.23;60.10;100887.06;7357912;19;20090;-62
2023/06/10 09:30:00;;;;;;;13.55;8.00;;;;;;;24.27;59.65;100884.72;7359137;19;20789;-63
2023/06/10 09:32:27;;;;;;;15.80;7.60;;;;;;;24.28;59.74;100889.84;7355525;19;20022;-62
2023/06/10 09:34:55;;;;;;;10.57;6.50;;;;;;;24.35;59.30;100884.31;7362301;19;20022;-63
2023/06/10 09:37:23;;;;;;;11.05;6.70;;;;;;;24.46;59.54;100877.25;7357647;19;20152;-63
2023/06/10 09:40:02;;;;;;;16.90;6.63;;;;;;;24.60;59.41;100884.75;7360676;19;20086;-62
2023/06/10 09:42:34;;;;;;;16.13;7.13;;;;;;;24.70;58.91;100887.63;7359202;19;21051;-63
2023/06/10 09:45:03;;;;;;;17.08;7.78;;;;;;;24.85;58.37;100892.44;7352351;19;20014;-62
2023/06/10 09:47:31;;;;;;;14.32;7.97;;;;;;;24.89;58.54;100887.41;7361105;19;20120;-62
2023/06/10 09:49:58;;;;;;;13.05;7.80;;;;;;;24.97;57.62;100898.59;7368386;19;20050;-63
2023/06/10 09:52:27;;;;;;;13.00;7.78;;;;;;;25.05;57.63;100900.84;7362837;19;20014;-65
2023/06/10 09:55:00;;;;;;;15.40;7.32;;;;;;;25.12;57.55;100906.06;7369567;19;20014;-62
2023/06/10 09:57:33;;;;;;;14.18;8.45;;;;;;;25.20;57.78;100900.25;7366587;19;20019;-62
2023/06/10 10:00:06;;;;;;;11.48;6.93;;;;;;;25.26;57.15;100910.06;7367568;19;20033;-63
2023/06/10 10:02:47;;;;;;;12.15;7.32;;;;;;;25.37;56.13;100903.75;7362858;19;20661;-63
2023/06/10 10:05:16;;;;;;;14.00;6.85;;;;;;;25.50;55.35;100908.78;7366815;19;20025;-63
2023/06/10 10:07:44;;;;;;;10.38;6.35;;;;;;;25.56;54.89;100907.00;7362814;19;20136;-64
2023/06/10 10:10:13;;;;;;;12.15;7.80;;;;;;;25.62;55.05;100903.31;7366280;19;20539;-64
2023/06/10 10:12:42;;;;;;;10.18;6.53;;;;;;;25.77;53.83;100899.97;7360884;19;20011;-63
2023/06/10 10:15:11;;;;;;;12.45;6.80;;;;;;;25.85;53.69;100896.84;7353845;19;20018;-63
2023/06/10 10:17:52;;;;;;;10.95;6.18;;;;;;;25.95;54.13;100892.41;7361204;19;20806;-63
2023/06/10 10:20:26;;;;;;;12.50;6.85;;;;;;;26.07;53.63;100897.63;7363956;19;20561;-63
2023/06/10 10:22:56;;;;;;;10.30;6.20;;;;;;;26.16;52.76;100896.09;7364277;19;20106;-63
2023/06/10 10:25:28;;;;;;;11.80;6.50;;;;;;;26.25;52.20;100888.41;7342315;19;20901;-62
2023/06/10 10:28:02;;;;;;;13.63;6.57;;;;;;;26.35;52.27;100893.91;7354562;19;20007;-63
2023/06/10 10:30:37;;;;;;;8.70;6.18;;;;;;;26.45;51.56;100885.91;7357871;19;20106;-63
2023/06/10 10:33:09;;;;;;;9.80;5.57;;;;;;;26.54;50.44;100887.06;7353839;19;20021;-63
2023/06/10 10:35:37;;;;;;;9.90;6.13;;;;;;;26.62;50.77;100881.19;7355864;19;20007;-62
2023/06/10 10:38:06;;;;;;;11.43;6.03;;;;;;;26.70;49.76;100877.22;7360563;19;20014;-61
2023/06/10 10:40:34;;;;;;;10.57;6.03;;;;;;;26.76;50.02;100878.88;7361359;19;20710;-61
2023/06/10 10:43:02;;;;;;;7.25;5.18;;;;;;;26.86;48.46;100878.13;7363525;19;20018;-62
2023/06/10 10:45:29;;;;;;;10.65;5.95;;;;;;;26.90;48.38;100876.56;7363741;19;20018;-62
2023/06/10 10:47:57;;;;;;;5.93;4.60;;;;;;;26.91;47.00;100868.22;7349429;19;20022;-63
2023/06/10 10:50:30;;;;;;;7.50;4.68;;;;;;;26.99;46.62;100875.00;7363969;19;21856;-62
2023/06/10 10:53:00;;;;;;;8.02;4.55;;;;;;;27.04;47.37;100875.84;7361456;19;20025;-62
2023/06/10 10:55:28;;;;;;;6.03;3.83;;;;;;;27.08;45.65;100882.38;7367969;19;20026;-63
2023/06/10 10:58:07;;;;;;;5.15;3.50;;;;;;;27.12;45.20;100885.38;7362138;19;20567;-63
2023/06/10 11:00:38;;;;;;;6.07;3.55;;;;;;;27.17;44.74;100880.00;7364789;19;20841;-63
2023/06/10 11:03:07;;;;;;;7.03;4.03;;;;;;;27.18;45.04;100887.81;7363214;19;20157;-63
2023/06/10 11:05:40;;;;;;;7.15;5.07;;;;;;;27.25;45.11;100887.59;7360827;19;20018;-62
2023/06/10 11:08:09;;;;;;;9.48;4.28;;;;;;;27.32;44.29;100880.09;7361194;19;20632;-61
2023/06/10 11:10:39;;;;;;;6.45;3.70;;;;;;;27.34;44.82;100877.91;7350440;19;20053;-62
2023/06/10 11:13:13;;;;;;;8.18;3.95;;;;;;;27.38;44.37;100875.53;7360857;19;20062;-61
2023/06/10 11:15:46;;;;;;;7.68;3.60;;;;;;;27.40;44.40;100876.88;7360738;19;20017;-62
2023/06/10 11:18:14;;;;;;;6.15;4.30;;;;;;;27.45;43.59;100868.78;7366547;19;20014;-62
2023/06/10 11:20:51;;;;;;;7.43;3.58;;;;;;;27.49;43.90;100874.47;7363471;19;20041;-62
2023/06/10 11:23:29;;;;;;;8.48;3.50;;;;;;;27.52;43.73;100871.28;7358805;19;20360;-62